createdAt,value
2023-03-19T00:00:31.901Z,101092.22
2023-03-19T00:03:06.724Z,101083.50
2023-03-19T00:05:35.860Z,101083.50
2023-03-19T00:08:04.798Z,101078.28
2023-03-19T00:10:32.992Z,101078.31
2023-03-19T00:13:00.623Z,101067.78
2023-03-19T00:15:27.976Z,101070.44
2023-03-19T00:17:56.725Z,101073.94
2023-03-19T00:20:24.034Z,101074.81
2023-03-19T00:22:51.403Z,101078.34
2023-03-19T00:25:18.823Z,101072.19
2023-03-19T00:27:46.449Z,101071.31
2023-03-19T00:30:15.333Z,101073.03
2023-03-19T00:32:43.172Z,101072.19
2023-03-19T00:35:10.965Z,101075.66
2023-03-19T00:37:40.632Z,101069.53
2023-03-19T00:40:10.576Z,101076.56
2023-03-19T00:42:37.864Z,101064.25
2023-03-19T00:45:05.866Z,101069.53
2023-03-19T00:47:33.798Z,101072.16
2023-03-19T00:50:03.942Z,101074.78
2023-03-19T00:52:31.652Z,101066.88
2023-03-19T00:54:58.865Z,101072.16
2023-03-19T00:57:26.219Z,101075.63
2023-03-19T00:59:53.884Z,101080.88
2023-03-19T01:02:21.500Z,101074.78
2023-03-19T01:04:49.733Z,101075.66
2023-03-19T01:07:17.424Z,101078.28
2023-03-19T01:09:44.798Z,101084.44
2023-03-19T01:12:12.386Z,101079.19
2023-03-19T01:14:39.795Z,101081.81
2023-03-19T01:17:07.388Z,101076.56
2023-03-19T01:19:34.795Z,101084.44
2023-03-19T01:22:04.756Z,101083.53
2023-03-19T01:24:33.801Z,101088.81
2023-03-19T01:27:01.771Z,101083.53
2023-03-19T01:29:33.845Z,101087.06
2023-03-19T01:32:10.997Z,101092.31
2023-03-19T01:34:47.848Z,101088.81
2023-03-19T01:37:17.421Z,101089.69
2023-03-19T01:39:47.150Z,101090.56
2023-03-19T01:42:15.977Z,101085.31
2023-03-19T01:45:03.841Z,101089.69
2023-03-19T01:47:33.405Z,101080.91
2023-03-19T01:50:43.286Z,101087.03
2023-03-19T01:53:44.099Z,101081.75
2023-03-19T01:56:24.246Z,101076.50
2023-03-19T01:59:25.646Z,101078.25
2023-03-19T02:02:25.839Z,101075.63
2023-03-19T02:05:00.789Z,101073.00
2023-03-19T02:07:46.610Z,101077.41
2023-03-19T02:10:17.086Z,101076.56
2023-03-19T02:12:44.894Z,101079.19
2023-03-19T02:15:12.975Z,101080.94
2023-03-19T02:17:42.610Z,101080.97
2023-03-19T02:20:28.710Z,101080.06
2023-03-19T02:23:11.061Z,101082.69
2023-03-19T02:26:04.063Z,101081.00
2023-03-19T02:28:33.556Z,101088.03
2023-03-19T02:31:03.705Z,101089.78
2023-03-19T02:33:31.689Z,101081.06
2023-03-19T02:35:59.250Z,101074.91
2023-03-19T02:38:30.555Z,101083.75
2023-03-19T02:41:06.001Z,101077.56
2023-03-19T02:43:35.090Z,101073.22
2023-03-19T02:46:07.006Z,101079.34
2023-03-19T02:48:35.146Z,101085.50
2023-03-19T02:51:05.693Z,101080.22
2023-03-19T02:53:34.961Z,101088.13
2023-03-19T02:56:05.475Z,101085.50
2023-03-19T02:58:33.143Z,101072.34
2023-03-19T03:01:03.720Z,101074.94
2023-03-19T03:03:32.637Z,101077.56
2023-03-19T03:05:59.989Z,101067.97
2023-03-19T03:08:28.738Z,101075.84
2023-03-19T03:10:57.195Z,101074.94
2023-03-19T03:13:25.330Z,101075.84
2023-03-19T03:15:53.625Z,101078.47
2023-03-19T03:18:21.156Z,101080.22
2023-03-19T03:20:49.033Z,101085.44
2023-03-19T03:23:18.003Z,101078.44
2023-03-19T03:25:48.564Z,101083.69
2023-03-19T03:28:17.872Z,101084.56
2023-03-19T03:30:47.052Z,101082.81
2023-03-19T03:33:14.518Z,101089.81
2023-03-19T03:35:41.775Z,101100.34
2023-03-19T03:38:10.347Z,101102.09
2023-03-19T03:40:37.686Z,101102.09
2023-03-19T03:43:05.230Z,101096.84
2023-03-19T03:45:35.312Z,101088.06
2023-03-19T03:48:04.644Z,101097.72
2023-03-19T03:50:32.060Z,101088.94
2023-03-19T03:53:04.865Z,101091.59
2023-03-19T03:55:32.408Z,101093.31
2023-03-19T03:57:59.880Z,101091.59
2023-03-19T04:00:27.910Z,101097.72
2023-03-19T04:02:59.341Z,101091.59
2023-03-19T04:05:26.708Z,101098.59
2023-03-19T04:08:05.424Z,101102.09
2023-03-19T04:10:33.540Z,101095.97
2023-03-19T04:13:03.557Z,101095.94
2023-03-19T04:15:33.423Z,101096.78
2023-03-19T04:18:03.889Z,101103.75
2023-03-19T04:20:33.204Z,101099.38
2023-03-19T04:23:03.047Z,101101.09
2023-03-19T04:25:31.095Z,101101.97
2023-03-19T04:27:59.202Z,101110.69
2023-03-19T04:30:30.149Z,101100.16
2023-03-19T04:32:57.551Z,101111.50
2023-03-19T04:35:25.798Z,101107.09
2023-03-19T04:37:53.372Z,101106.25
2023-03-19T04:40:22.091Z,101113.22
2023-03-19T04:42:50.329Z,101104.50
2023-03-19T04:45:36.752Z,101113.25
2023-03-19T04:48:04.336Z,101110.63
2023-03-19T04:50:35.085Z,101115.91
2023-03-19T04:53:04.608Z,101116.75
2023-03-19T04:55:32.528Z,101118.56
2023-03-19T04:58:09.922Z,101123.88
2023-03-19T05:00:38.305Z,101121.22
2023-03-19T05:03:07.242Z,101125.63
2023-03-19T05:05:35.896Z,101115.97
2023-03-19T05:08:08.792Z,101116.00
2023-03-19T05:10:38.019Z,101120.41
2023-03-19T05:13:06.265Z,101118.66
2023-03-19T05:15:37.440Z,101124.78
2023-03-19T05:18:08.726Z,101123.06
2023-03-19T05:20:42.791Z,101134.44
2023-03-19T05:23:18.144Z,101132.72
2023-03-19T05:26:01.373Z,101127.47
2023-03-19T05:28:48.449Z,101134.47
2023-03-19T05:31:19.632Z,101130.13
2023-03-19T05:33:51.550Z,101137.13
2023-03-19T05:36:19.548Z,101136.25
2023-03-19T05:38:58.907Z,101132.75
2023-03-19T05:41:32.952Z,101138.00
2023-03-19T05:44:05.025Z,101138.00
2023-03-19T05:46:43.802Z,101145.91
2023-03-19T05:49:17.927Z,101142.38
2023-03-19T05:51:45.582Z,101143.19
2023-03-19T05:54:14.129Z,101144.03
2023-03-19T05:56:50.090Z,101147.47
2023-03-19T05:59:43.476Z,101157.88
2023-03-19T06:02:37.927Z,101153.41
2023-03-19T06:05:31.977Z,101155.94
2023-03-19T06:08:07.187Z,101162.00
2023-03-19T06:10:53.058Z,101166.31
2023-03-19T06:13:20.649Z,101164.47
2023-03-19T06:15:54.112Z,101165.34
2023-03-19T06:18:26.310Z,101167.91
2023-03-19T06:20:53.793Z,101168.78
2023-03-19T06:23:21.584Z,101176.66
2023-03-19T06:25:49.650Z,101182.81
2023-03-19T06:28:18.465Z,101186.34
2023-03-19T06:30:46.785Z,101189.88
2023-03-19T06:33:43.795Z,101187.28
2023-03-19T06:36:11.509Z,101196.09
2023-03-19T06:38:39.595Z,101189.97
2023-03-19T06:41:07.425Z,101199.59
2023-03-19T06:43:37.347Z,101209.22
2023-03-19T06:46:05.472Z,101207.47
2023-03-19T06:48:34.327Z,101211.84
2023-03-19T06:51:02.189Z,101208.41
2023-03-19T06:53:32.190Z,101210.31
2023-03-19T06:55:59.436Z,101209.59
2023-03-19T06:58:36.408Z,101207.19
2023-03-19T07:01:04.473Z,101208.22
2023-03-19T07:03:31.865Z,101206.75
2023-03-19T07:06:11.870Z,101212.28
2023-03-19T07:08:39.233Z,101208.16
2023-03-19T07:11:10.963Z,101216.41
2023-03-19T07:13:38.369Z,101215.06
2023-03-19T07:16:06.621Z,101211.00
2023-03-19T07:18:34.389Z,101211.34
2023-03-19T07:21:02.069Z,101215.06
2023-03-19T07:23:32.306Z,101209.91
2023-03-19T07:25:59.696Z,101222.41
2023-03-19T07:28:27.098Z,101222.47
2023-03-19T07:30:54.676Z,101218.97
2023-03-19T07:33:29.030Z,101222.53
2023-03-19T07:35:59.481Z,101226.91
2023-03-19T07:38:27.178Z,101229.53
2023-03-19T07:41:01.913Z,101242.78
2023-03-19T07:43:31.506Z,101241.00
2023-03-19T07:46:00.909Z,101239.25
2023-03-19T07:48:32.925Z,101245.41
2023-03-19T07:51:00.527Z,101253.38
2023-03-19T07:53:27.814Z,101250.72
2023-03-19T07:55:55.522Z,101248.94
2023-03-19T07:58:22.872Z,101250.72
2023-03-19T08:00:50.674Z,101252.50
2023-03-19T08:03:17.943Z,101255.09
2023-03-19T08:05:45.333Z,101263.03
2023-03-19T08:08:13.085Z,101267.41
2023-03-19T08:10:40.947Z,101265.66
2023-03-19T08:13:08.436Z,101269.25
2023-03-19T08:15:35.991Z,101268.34
2023-03-19T08:18:08.854Z,101267.47
2023-03-19T08:20:36.482Z,101271.00
2023-03-19T08:23:04.471Z,101271.84
2023-03-19T08:25:32.764Z,101277.16
2023-03-19T08:28:01.269Z,101281.56
2023-03-19T08:30:31.969Z,101285.13
2023-03-19T08:33:00.186Z,101289.50
2023-03-19T08:35:27.720Z,101288.66
2023-03-19T08:37:56.749Z,101286.88
2023-03-19T08:40:24.389Z,101292.16
2023-03-19T08:42:52.004Z,101299.22
2023-03-19T08:45:20.049Z,101300.13
2023-03-19T08:47:49.013Z,101295.69
2023-03-19T08:50:17.549Z,101293.03
2023-03-19T08:52:44.932Z,101300.13
2023-03-19T08:55:12.619Z,101299.22
2023-03-19T08:57:40.108Z,101311.56
2023-03-19T09:00:09.296Z,101316.84
2023-03-19T09:02:36.630Z,101311.56
2023-03-19T09:05:04.315Z,101316.88
2023-03-19T09:07:31.654Z,101321.28
2023-03-19T09:09:59.074Z,101316.88
2023-03-19T09:12:26.585Z,101321.28
2023-03-19T09:14:53.851Z,101316.84
2023-03-19T09:17:21.157Z,101315.94
2023-03-19T09:19:48.429Z,101323.00
2023-03-19T09:22:15.711Z,101323.03
2023-03-19T09:24:43.052Z,101323.06
2023-03-19T09:27:10.443Z,101326.56
2023-03-19T09:29:37.718Z,101336.28
2023-03-19T09:32:06.200Z,101340.66
2023-03-19T09:34:33.780Z,101342.34
2023-03-19T09:37:01.513Z,101344.94
2023-03-19T09:39:32.656Z,101347.56
2023-03-19T09:42:18.618Z,101340.50
2023-03-19T09:44:46.593Z,101350.19
2023-03-19T09:47:26.404Z,101353.69
2023-03-19T09:49:58.365Z,101362.56
2023-03-19T09:52:58.736Z,101361.72
2023-03-19T09:55:45.711Z,101360.88
2023-03-19T09:58:17.246Z,101364.44
2023-03-19T10:00:49.100Z,101360.06
2023-03-19T10:03:35.415Z,101362.75
2023-03-19T10:06:08.846Z,101368.03
2023-03-19T10:08:45.763Z,101380.41
2023-03-19T10:11:49.180Z,101377.75
2023-03-19T10:15:04.442Z,101374.25
2023-03-19T10:17:41.246Z,101382.19
2023-03-19T10:20:22.654Z,101385.69
2023-03-19T10:23:00.664Z,101386.56
2023-03-19T10:25:41.779Z,101382.13
2023-03-19T10:28:20.591Z,101382.13
2023-03-19T10:31:17.739Z,101385.63
2023-03-19T10:33:57.056Z,101383.84
2023-03-19T10:36:31.006Z,101391.78
2023-03-19T10:38:58.408Z,101390.00
2023-03-19T10:41:51.296Z,101389.13
2023-03-19T10:44:47.530Z,101386.47
2023-03-19T10:47:16.986Z,101390.91
2023-03-19T10:49:44.390Z,101396.19
2023-03-19T10:52:32.662Z,101397.97
2023-03-19T10:55:18.957Z,101394.50
2023-03-19T10:57:50.627Z,101391.84
2023-03-19T11:00:23.626Z,101395.38
2023-03-19T11:02:54.198Z,101387.41
2023-03-19T11:05:22.264Z,101390.13
2023-03-19T11:07:51.698Z,101394.53
2023-03-19T11:10:20.503Z,101404.25
2023-03-19T11:12:55.078Z,101406.91
2023-03-19T11:15:33.271Z,101409.53
2023-03-19T11:18:07.186Z,101406.88
2023-03-19T11:20:37.674Z,101412.19
2023-03-19T11:23:16.982Z,101413.94
2023-03-19T11:25:53.213Z,101418.38
2023-03-19T11:28:26.296Z,101421.00
2023-03-19T11:31:15.607Z,101421.00
2023-03-19T11:34:14.406Z,101421.88
2023-03-19T11:37:05.252Z,101420.09
2023-03-19T11:39:51.534Z,101419.19
2023-03-19T11:42:36.749Z,101417.47
2023-03-19T11:45:20.824Z,101411.31
2023-03-19T11:47:57.243Z,101406.88
2023-03-19T11:50:43.910Z,101404.25
2023-03-19T11:53:14.253Z,101407.75
2023-03-19T11:56:05.559Z,101406.88
2023-03-19T11:58:47.953Z,101410.41
2023-03-19T12:01:45.896Z,101410.38
2023-03-19T12:04:31.838Z,101398.00
2023-03-19T12:07:13.456Z,101407.72
2023-03-19T12:10:08.246Z,101405.97
2023-03-19T12:13:27.081Z,101409.50
2023-03-19T12:16:15.968Z,101402.44
2023-03-19T12:19:18.611Z,101393.63
2023-03-19T12:21:54.800Z,101399.78
2023-03-19T12:24:44.168Z,101400.63
2023-03-19T12:27:30.539Z,101410.34
2023-03-19T12:30:13.355Z,101399.69
2023-03-19T12:33:10.137Z,101397.94
2023-03-19T12:35:40.831Z,101404.09
2023-03-19T12:38:17.482Z,101398.78
2023-03-19T12:40:50.721Z,101399.66
2023-03-19T12:43:51.917Z,101403.19
2023-03-19T12:46:43.165Z,101406.75
2023-03-19T12:49:23.249Z,101411.19
2023-03-19T12:51:57.278Z,101410.31
2023-03-19T12:54:28.663Z,101416.47
2023-03-19T12:57:05.445Z,101407.59
2023-03-19T13:00:03.566Z,101418.19
2023-03-19T13:02:42.294Z,101415.56
2023-03-19T13:05:23.164Z,101418.19
2023-03-19T13:08:00.567Z,101419.09
2023-03-19T13:10:30.822Z,101432.38
2023-03-19T13:13:00.539Z,101430.66
2023-03-19T13:15:27.702Z,101432.44
2023-03-19T13:18:16.889Z,101424.50
2023-03-19T13:20:55.758Z,101431.56
2023-03-19T13:23:30.123Z,101433.38
2023-03-19T13:25:59.222Z,101444.84
2023-03-19T13:28:55.929Z,101442.19
2023-03-19T13:31:30.685Z,101440.44
2023-03-19T13:34:16.781Z,101441.34
2023-03-19T13:36:53.051Z,101449.25
2023-03-19T13:39:25.217Z,101449.25
2023-03-19T13:41:54.893Z,101447.47
2023-03-19T13:44:22.119Z,101449.25
2023-03-19T13:46:49.994Z,101446.53
2023-03-19T13:49:36.775Z,101448.28
2023-03-19T13:52:26.895Z,101452.69
2023-03-19T13:54:57.928Z,101442.06
2023-03-19T13:57:36.021Z,101458.81
2023-03-19T14:00:41.383Z,101456.13
2023-03-19T14:03:26.692Z,101468.47
2023-03-19T14:05:56.601Z,101464.94
2023-03-19T14:08:32.725Z,101471.00
2023-03-19T14:11:06.892Z,101472.69
2023-03-19T14:13:49.280Z,101477.91
2023-03-19T14:16:26.440Z,101484.94
2023-03-19T14:19:00.439Z,101481.44
2023-03-19T14:21:59.519Z,101491.09
2023-03-19T14:24:56.320Z,101497.25
2023-03-19T14:27:33.338Z,101496.28
2023-03-19T14:30:19.132Z,101492.69
2023-03-19T14:32:49.179Z,101489.94
2023-03-19T14:35:20.688Z,101495.16
2023-03-19T14:37:50.856Z,101485.47
2023-03-19T14:40:23.054Z,101488.06
2023-03-19T14:43:04.142Z,101489.84
2023-03-19T14:45:48.445Z,101488.97
2023-03-19T14:48:43.114Z,101490.72
2023-03-19T14:51:28.830Z,101492.41
2023-03-19T14:54:06.803Z,101496.69
2023-03-19T14:56:35.889Z,101500.16
2023-03-19T14:59:06.488Z,101508.88
2023-03-19T15:01:43.733Z,101500.88
2023-03-19T15:04:14.441Z,101510.56
2023-03-19T15:06:46.750Z,101509.59
2023-03-19T15:09:22.507Z,101509.47
2023-03-19T15:12:08.416Z,101509.31
2023-03-19T15:14:54.220Z,101506.63
2023-03-19T15:17:27.777Z,101510.88
2023-03-19T15:19:58.554Z,101512.63
2023-03-19T15:22:33.311Z,101513.34
2023-03-19T15:25:14.890Z,101529.03
2023-03-19T15:27:43.492Z,101540.41
2023-03-19T15:30:32.614Z,101530.63
2023-03-19T15:33:16.438Z,101533.19
2023-03-19T15:35:48.701Z,101538.31
2023-03-19T15:38:18.157Z,101531.28
2023-03-19T15:40:45.715Z,101534.75
2023-03-19T15:43:13.717Z,101524.19
2023-03-19T15:45:46.484Z,101520.69
2023-03-19T15:48:28.467Z,101524.19
2023-03-19T15:51:00.699Z,101498.75
2023-03-19T15:53:32.222Z,101504.94
2023-03-19T15:56:02.985Z,101505.88
2023-03-19T15:58:31.741Z,101505.81
2023-03-19T16:01:01.735Z,101505.84
2023-03-19T16:03:52.439Z,101519.94
2023-03-19T16:06:19.938Z,101511.16
2023-03-19T16:09:07.587Z,101515.59
2023-03-19T16:11:41.360Z,101509.41
2023-03-19T16:14:14.830Z,101519.03
2023-03-19T16:16:42.386Z,101518.13
2023-03-19T16:19:32.950Z,101526.84
2023-03-19T16:22:01.594Z,101530.28
2023-03-19T16:24:36.269Z,101525.91
2023-03-19T16:27:07.052Z,101536.44
2023-03-19T16:29:58.640Z,101531.97
2023-03-19T16:32:31.537Z,101542.47
2023-03-19T16:35:19.785Z,101545.91
2023-03-19T16:37:49.048Z,101544.97
2023-03-19T16:40:24.529Z,101549.31
2023-03-19T16:42:54.245Z,101556.31
2023-03-19T16:45:32.197Z,101564.19
2023-03-19T16:48:03.704Z,101568.56
2023-03-19T16:50:40.047Z,101572.91
2023-03-19T16:53:29.552Z,101572.03
2023-03-19T16:55:58.553Z,101583.47
2023-03-19T16:58:35.062Z,101571.19
2023-03-19T17:01:04.758Z,101571.13
2023-03-19T17:03:32.061Z,101575.50
2023-03-19T17:05:59.413Z,101580.75
2023-03-19T17:08:27.582Z,101582.50
2023-03-19T17:10:56.307Z,101579.84
2023-03-19T17:13:30.574Z,101599.16
2023-03-19T17:16:01.837Z,101586.84
2023-03-19T17:18:33.268Z,101596.50
2023-03-19T17:21:07.078Z,101597.38
2023-03-19T17:23:34.884Z,101595.56
2023-03-19T17:26:09.291Z,101602.59
2023-03-19T17:28:37.522Z,101604.34
2023-03-19T17:31:05.106Z,101604.34
2023-03-19T17:33:32.363Z,101605.22
2023-03-19T17:35:59.921Z,101605.22
2023-03-19T17:38:32.830Z,101621.00
2023-03-19T17:41:00.417Z,101623.53
2023-03-19T17:43:27.672Z,101612.06
2023-03-19T17:45:55.562Z,101626.03
2023-03-19T17:48:25.989Z,101625.91
2023-03-19T17:50:55.915Z,101628.53
2023-03-19T17:53:23.144Z,101632.91
2023-03-19T17:55:50.458Z,101633.78
2023-03-19T17:58:20.091Z,101631.09
2023-03-19T18:00:49.528Z,101644.22
2023-03-19T18:03:19.311Z,101639.81
2023-03-19T18:05:47.159Z,101644.09
2023-03-19T18:08:20.903Z,101645.75
2023-03-19T18:10:48.233Z,101646.56
2023-03-19T18:13:16.040Z,101651.72
2023-03-19T18:15:45.153Z,101648.13
2023-03-19T18:18:19.065Z,101655.09
2023-03-19T18:20:47.569Z,101657.66
2023-03-19T18:23:18.078Z,101653.16
2023-03-19T18:25:46.313Z,101663.63
2023-03-19T18:28:13.750Z,101658.34
2023-03-19T18:30:43.445Z,101658.34
2023-03-19T18:33:22.293Z,101672.25
2023-03-19T18:35:49.765Z,101674.88
2023-03-19T18:38:20.337Z,101673.06
2023-03-19T18:40:48.918Z,101680.06
2023-03-19T18:43:18.148Z,101681.72
2023-03-19T18:45:49.319Z,101688.72
2023-03-19T18:48:20.863Z,101690.44
2023-03-19T18:50:48.505Z,101689.47
2023-03-19T18:53:16.520Z,101699.91
2023-03-19T18:55:44.647Z,101699.81
2023-03-19T18:58:21.561Z,101699.75
2023-03-19T19:00:49.954Z,101705.03
2023-03-19T19:03:19.918Z,101710.34
2023-03-19T19:05:47.518Z,101715.59
2023-03-19T19:08:17.657Z,101705.09
2023-03-19T19:10:54.245Z,101712.94
2023-03-19T19:13:25.937Z,101715.53
2023-03-19T19:15:53.474Z,101716.31
2023-03-19T19:18:24.232Z,101717.03
2023-03-19T19:20:52.436Z,101716.09
2023-03-19T19:23:21.173Z,101713.34
2023-03-19T19:25:52.063Z,101721.97
2023-03-19T19:28:41.195Z,101725.44
2023-03-19T19:31:24.667Z,101721.03
2023-03-19T19:33:52.781Z,101726.28
2023-03-19T19:36:21.320Z,101731.47
2023-03-19T19:38:48.794Z,101734.88
2023-03-19T19:41:18.495Z,101726.09
2023-03-19T19:43:47.496Z,101728.72
2023-03-19T19:46:16.598Z,101734.75
2023-03-19T19:48:44.896Z,101738.22
2023-03-19T19:51:21.895Z,101742.44
2023-03-19T19:53:49.693Z,101745.00
2023-03-19T19:56:26.777Z,101741.44
2023-03-19T19:58:55.872Z,101739.66
2023-03-19T20:01:25.266Z,101733.50
2023-03-19T20:03:53.365Z,101727.22
2023-03-19T20:06:20.953Z,101741.03
2023-03-19T20:08:51.207Z,101741.88
2023-03-19T20:11:21.812Z,101748.81
2023-03-19T20:13:54.181Z,101755.66
2023-03-19T20:16:24.376Z,101753.00
2023-03-19T20:18:55.187Z,101765.19
2023-03-19T20:21:22.871Z,101755.56
2023-03-19T20:23:53.083Z,101760.72
2023-03-19T20:26:23.576Z,101762.38
2023-03-19T20:28:51.554Z,101755.25
2023-03-19T20:31:30.126Z,101766.53
2023-03-19T20:33:57.730Z,101763.81
2023-03-19T20:36:26.805Z,101762.91
2023-03-19T20:38:54.594Z,101756.69
2023-03-19T20:41:24.447Z,101765.41
2023-03-19T20:43:52.366Z,101767.91
2023-03-19T20:46:21.032Z,101768.63
2023-03-19T20:48:49.290Z,101779.94
2023-03-19T20:51:24.945Z,101777.31
2023-03-19T20:53:53.058Z,101781.66
2023-03-19T20:56:24.784Z,101779.94
2023-03-19T20:58:52.650Z,101779.78
2023-03-19T21:01:20.080Z,101778.75
2023-03-19T21:03:47.574Z,101781.19
2023-03-19T21:06:20.680Z,101784.56
2023-03-19T21:08:50.946Z,101786.25
2023-03-19T21:11:21.981Z,101798.34
2023-03-19T21:13:52.823Z,101797.22
2023-03-19T21:16:25.763Z,101803.25
2023-03-19T21:18:54.527Z,101800.59
2023-03-19T21:21:32.597Z,101811.81
2023-03-19T21:24:13.111Z,101809.94
2023-03-19T21:26:41.803Z,101809.88
2023-03-19T21:29:18.420Z,101814.19
2023-03-19T21:31:46.040Z,101816.81
2023-03-19T21:34:14.575Z,101819.38
2023-03-19T21:36:41.875Z,101811.44
2023-03-19T21:39:09.110Z,101818.44
2023-03-19T21:41:37.331Z,101817.50
2023-03-19T21:44:15.595Z,101806.91
2023-03-19T21:46:46.682Z,101800.56
2023-03-19T21:49:14.625Z,101793.53
2023-03-19T21:51:44.725Z,101792.69
2023-03-19T21:54:12.091Z,101788.34
2023-03-19T21:56:44.975Z,101788.34
2023-03-19T21:59:22.852Z,101799.66
2023-03-19T22:01:50.195Z,101804.03
2023-03-19T22:04:19.339Z,101803.09
2023-03-19T22:06:46.862Z,101800.41
2023-03-19T22:09:14.108Z,101797.66
2023-03-19T22:11:46.042Z,101799.28
2023-03-19T22:14:24.752Z,101803.63
2023-03-19T22:16:54.848Z,101801.09
2023-03-19T22:19:22.411Z,101806.28
2023-03-19T22:21:56.311Z,101809.78
2023-03-19T22:24:23.548Z,101811.47
2023-03-19T22:26:56.907Z,101810.47
2023-03-19T22:29:25.865Z,101824.38
2023-03-19T22:31:54.706Z,101814.75
2023-03-19T22:34:24.825Z,101811.28
2023-03-19T22:36:52.088Z,101816.47
2023-03-19T22:39:19.415Z,101808.56
2023-03-19T22:41:48.872Z,101818.16
2023-03-19T22:44:29.778Z,101812.91
2023-03-19T22:46:58.598Z,101811.16
2023-03-19T22:49:26.540Z,101810.34
2023-03-19T22:51:53.940Z,101805.09
2023-03-19T22:54:21.197Z,101803.38
2023-03-19T22:56:48.541Z,101803.38
2023-03-19T22:59:16.276Z,101803.38
2023-03-19T23:01:46.291Z,101809.53
2023-03-19T23:04:25.465Z,101816.53
2023-03-19T23:06:54.785Z,101813.09
2023-03-19T23:09:33.523Z,101810.34
2023-03-19T23:12:02.752Z,101804.91
2023-03-19T23:14:31.508Z,101810.91
2023-03-19T23:17:10.142Z,101809.09
2023-03-19T23:19:38.559Z,101804.69
2023-03-19T23:22:08.098Z,101796.78
2023-03-19T23:24:35.463Z,101792.38
2023-03-19T23:27:04.392Z,101798.47
2023-03-19T23:29:35.177Z,101793.22
2023-03-19T23:32:04.424Z,101800.25
2023-03-19T23:34:35.279Z,101796.69
2023-03-19T23:37:04.701Z,101805.34
2023-03-19T23:39:32.118Z,101806.06
2023-03-19T23:42:00.367Z,101796.47
2023-03-19T23:44:29.495Z,101796.47
2023-03-19T23:47:03.503Z,101784.31
2023-03-19T23:49:33.428Z,101786.09
2023-03-19T23:52:01.985Z,101786.09
2023-03-19T23:54:39.563Z,101794.78
2023-03-19T23:57:12.926Z,101793.06
2023-03-19T23:59:42.791Z,101796.56
